Time;durP1;ratioP1;P1;durP2;ratioP2;P2;SDS_P1;SDS_P2;PMS_P1;PMS_P2;Temp;Humidity;BMP_temperature;BMP_pressure;BME280_temperature;BME280_humidity;BME280_pressure;Samples;Min_cycle;Max_cycle;Signal;HPM_P1;HPM_P2
2021/03/19 00:02:54;;;;;;;9.30;2.50;;;;;;;11.61;70.02;101798.75;4369880;32;20059;-80
2021/03/19 00:05:22;;;;;;;5.28;2.72;;;;;;;11.54;70.87;101807.31;4372198;32;20701;-78
2021/03/19 00:10:26;;;;;;;8.77;2.65;;;;;;;12.13;69.96;101817.06;3980490;32;15152845;-76
2021/03/19 00:12:53;;;;;;;8.88;2.70;;;;;;;12.13;69.96;101817.06;4441400;32;20037;-76
2021/03/19 00:15:21;;;;;;;6.78;2.72;;;;;;;11.81;70.36;101814.66;4441652;32;20037;-76
2021/03/19 00:17:47;;;;;;;7.12;3.62;;;;;;;11.87;69.73;101824.25;4441568;32;20100;-76
2021/03/19 00:20:13;;;;;;;6.00;3.10;;;;;;;11.78;70.20;101825.97;4438338;32;20079;-77
2021/03/19 00:22:40;;;;;;;7.00;3.35;;;;;;;11.78;70.34;101820.31;4435143;32;20424;-76
2021/03/19 00:25:07;;;;;;;9.30;4.18;;;;;;;11.73;70.56;101829.25;4441078;32;20065;-78
2021/03/19 00:27:34;;;;;;;9.00;4.25;;;;;;;11.52;71.07;101830.28;4440673;32;20033;-80
2021/03/19 00:30:00;;;;;;;9.35;4.18;;;;;;;11.56;70.08;101830.22;4437256;32;20378;-80
2021/03/19 00:32:26;;;;;;;8.68;4.25;;;;;;;11.49;70.79;101839.56;4440893;32;20529;-80
2021/03/19 00:34:51;;;;;;;10.32;3.60;;;;;;;11.44;70.95;101844.84;4441614;32;20030;-79
2021/03/19 00:37:17;;;;;;;5.78;2.70;;;;;;;11.32;71.09;101837.72;4439596;32;20060;-79
2021/03/19 00:39:43;;;;;;;11.55;3.10;;;;;;;11.38;71.27;101844.50;4436635;32;20147;-79
2021/03/19 00:42:09;;;;;;;10.00;2.62;;;;;;;11.33;71.65;101847.78;4436072;32;20103;-79
2021/03/19 00:44:36;;;;;;;6.22;2.75;;;;;;;11.37;71.57;101851.34;4440952;32;20445;-79
2021/03/19 00:47:03;;;;;;;8.23;2.62;;;;;;;11.31;72.76;101849.41;4442253;32;20073;-80
2021/03/19 00:49:29;;;;;;;8.55;3.33;;;;;;;11.33;73.00;101842.16;4435545;32;20175;-79
2021/03/19 00:51:54;;;;;;;11.70;3.60;;;;;;;11.35;73.36;101850.97;4438094;32;20021;-80
2021/03/19 00:54:20;;;;;;;11.93;3.62;;;;;;;11.25;73.92;101842.59;4441870;32;20063;-81
2021/03/19 00:56:46;;;;;;;12.02;4.47;;;;;;;11.14;75.09;101847.56;4440509;32;20074;-80
2021/03/19 00:59:12;;;;;;;11.98;4.07;;;;;;;11.14;76.21;101841.91;4439859;32;20029;-80
2021/03/19 01:01:38;;;;;;;7.78;4.32;;;;;;;11.18;76.19;101842.69;4430424;32;20029;-80
2021/03/19 01:04:05;;;;;;;8.32;4.10;;;;;;;11.07;77.52;101837.13;4423643;32;20061;-81
2021/03/19 01:06:31;;;;;;;7.25;3.30;;;;;;;10.98;78.08;101834.00;4423439;32;20034;-79
2021/03/19 01:08:57;;;;;;;8.25;4.05;;;;;;;10.87;78.29;101840.94;4425828;32;20110;-80
2021/03/19 01:11:24;;;;;;;10.40;3.28;;;;;;;10.70;78.77;101830.59;4425441;32;20037;-79
2021/03/19 01:13:50;;;;;;;8.00;3.37;;;;;;;10.69;79.49;101843.06;4426064;32;20064;-80
2021/03/19 01:16:16;;;;;;;10.30;4.43;;;;;;;10.63;79.57;101848.34;4421500;32;20510;-79
2021/03/19 01:18:41;;;;;;;9.35;4.43;;;;;;;10.49;79.53;101839.97;4423293;32;20057;-79
2021/03/19 01:21:07;;;;;;;13.50;5.37;;;;;;;10.58;79.24;101843.13;4414117;32;20107;-79
2021/03/19 01:23:33;;;;;;;11.50;4.72;;;;;;;10.54;79.68;101838.75;4413138;32;20046;-79
2021/03/19 01:25:59;;;;;;;8.20;3.95;;;;;;;10.50;78.89;101852.03;4416496;32;20397;-79
2021/03/19 01:28:25;;;;;;;10.82;4.20;;;;;;;10.34;78.49;101837.69;4413238;32;20068;-79
2021/03/19 01:30:51;;;;;;;9.02;3.72;;;;;;;10.56;78.28;101844.78;4412616;32;20531;-78
2021/03/19 01:33:17;;;;;;;13.62;6.47;;;;;;;10.47;78.90;101848.06;4414559;32;20062;-79
2021/03/19 01:35:43;;;;;;;12.20;6.15;;;;;;;10.49;78.58;101853.28;4414768;32;20438;-80
2021/03/19 01:38:10;;;;;;;14.05;6.47;;;;;;;10.63;78.18;101850.34;4409605;32;20469;-80
2021/03/19 01:40:38;;;;;;;10.35;6.12;;;;;;;10.65;77.65;101854.34;4414535;32;20373;-80
2021/03/19 01:49:18;;;;;;;9.52;4.72;;;;;;;11.29;74.30;101858.28;3982562;32;15023838;-76
2021/03/19 01:52:24;;;;;;;9.38;4.45;;;;;;;11.29;74.30;101858.28;4431043;32;20057;-77
2021/03/19 01:55:29;;;;;;;10.73;5.30;;;;;;;10.58;76.34;101870.50;4434456;32;20026;-77
2021/03/19 01:58:34;;;;;;;8.82;4.00;;;;;;;10.50;77.41;101852.88;4430837;32;20136;-78
2021/03/19 02:01:40;;;;;;;7.12;4.18;;;;;;;10.43;77.26;101857.72;4433812;32;20037;-77
2021/03/19 02:04:45;;;;;;;9.05;4.45;;;;;;;10.34;78.16;101852.53;4435728;32;20041;-77
2021/03/19 02:07:50;;;;;;;9.18;4.55;;;;;;;10.30;79.12;101859.38;4436635;32;20051;-77
2021/03/19 02:10:56;;;;;;;9.75;4.43;;;;;;;10.19;79.15;101855.84;4435316;32;20022;-78
2021/03/19 02:14:01;;;;;;;7.30;3.80;;;;;;;10.17;79.45;101852.62;4436150;32;20102;-77
2021/03/19 02:17:07;;;;;;;7.53;4.00;;;;;;;10.05;80.23;101849.03;4434590;32;20363;-76
2021/03/19 02:20:12;;;;;;;11.18;4.10;;;;;;;10.04;80.27;101829.75;4435056;32;20485;-78
2021/03/19 02:23:17;;;;;;;11.02;4.30;;;;;;;9.98;80.73;101829.38;4433677;32;20060;-78
2021/03/19 02:26:23;;;;;;;8.13;5.12;;;;;;;10.06;81.09;101842.22;4436835;32;20076;-78
2021/03/19 02:29:28;;;;;;;8.98;4.72;;;;;;;10.08;81.00;101841.81;4437313;32;20038;-80
2021/03/19 02:37:26;;;;;;;15.27;7.07;;;;;;;10.78;78.47;101847.03;3999075;31;15018571;-78
2021/03/19 02:39:53;;;;;;;10.43;6.62;;;;;;;10.78;78.47;101847.03;4454279;32;20133;-78
2021/03/19 02:42:22;;;;;;;10.60;6.15;;;;;;;10.24;78.73;101838.53;4457006;32;20030;-77
2021/03/19 02:44:48;;;;;;;9.98;5.87;;;;;;;10.22;78.48;101838.13;4455438;32;20037;-78
2021/03/19 02:47:15;;;;;;;14.80;6.22;;;;;;;10.23;78.29;101836.91;4443740;32;20119;-79
2021/03/19 02:49:41;;;;;;;14.25;5.45;;;;;;;10.32;78.16;101835.28;4455280;32;22015;-78
2021/03/19 02:52:07;;;;;;;7.22;4.65;;;;;;;10.38;77.62;101836.44;4456302;32;20077;-79
2021/03/19 02:54:32;;;;;;;10.68;4.22;;;;;;;10.38;77.57;101825.19;4456713;32;20040;-79
2021/03/19 02:56:58;;;;;;;8.18;3.65;;;;;;;10.47;77.00;101827.53;4442516;32;20033;-78
2021/03/19 02:59:24;;;;;;;7.65;3.87;;;;;;;10.49;76.72;101833.56;4456169;32;20075;-79
2021/03/19 03:01:50;;;;;;;8.30;3.90;;;;;;;10.47;76.16;101833.16;4448626;32;20489;-78
2021/03/19 03:04:16;;;;;;;7.35;3.87;;;;;;;10.55;76.11;101838.34;4438853;32;20096;-77
2021/03/19 03:09:22;;;;;;;6.40;4.00;;;;;;;10.67;75.88;101834.22;3998412;31;15016659;-78
2021/03/19 03:11:48;;;;;;;7.57;4.50;;;;;;;10.41;75.65;101818.75;4453587;32;20448;-77
2021/03/19 03:14:18;;;;;;;7.47;4.03;;;;;;;10.54;74.81;101819.03;4452852;32;20037;-80
2021/03/19 03:16:47;;;;;;;6.78;4.12;;;;;;;10.65;74.66;101819.78;4453686;32;20133;-79
2021/03/19 03:19:20;;;;;;;7.05;3.92;;;;;;;10.61;74.71;101814.16;4447918;32;20041;-78
2021/03/19 03:21:46;;;;;;;8.30;3.65;;;;;;;10.49;74.71;101814.66;4439737;32;20401;-78
2021/03/19 03:24:14;;;;;;;8.25;3.20;;;;;;;10.37;75.36;101817.16;4451740;32;20067;-80
2021/03/19 03:26:41;;;;;;;5.70;3.05;;;;;;;10.31;75.60;101824.44;4452401;32;20309;-78
2021/03/19 03:29:10;;;;;;;6.15;3.00;;;;;;;10.31;75.64;101813.94;4453046;32;20389;-79
2021/03/19 03:31:38;;;;;;;9.60;2.87;;;;;;;10.27;76.34;101818.03;4450078;32;20064;-79
2021/03/19 03:34:04;;;;;;;10.90;3.15;;;;;;;10.28;75.91;101826.03;4454232;32;20064;-78
2021/03/19 03:36:33;;;;;;;5.95;2.58;;;;;;;10.33;75.84;101817.16;4455284;32;20045;-79
2021/03/19 03:39:01;;;;;;;6.65;2.97;;;;;;;10.33;75.72;101819.97;4448116;32;20129;-79
2021/03/19 03:41:28;;;;;;;7.97;2.65;;;;;;;10.40;75.76;101827.59;4449512;32;20084;-79
2021/03/19 03:43:54;;;;;;;4.57;2.40;;;;;;;10.43;75.48;101832.41;4450700;32;20065;-77
2021/03/19 03:46:25;;;;;;;6.93;2.60;;;;;;;10.44;75.35;101832.00;4449275;32;20113;-78
2021/03/19 03:48:51;;;;;;;8.23;2.62;;;;;;;10.51;74.90;101831.94;4434997;32;20087;-80
2021/03/19 03:51:17;;;;;;;4.70;2.20;;;;;;;10.37;74.96;101840.44;4450489;32;20033;-80
2021/03/19 03:53:43;;;;;;;3.72;2.00;;;;;;;10.38;75.16;101833.63;4449922;32;20449;-78
2021/03/19 03:56:12;;;;;;;3.97;2.22;;;;;;;10.23;75.55;101842.53;4452561;32;20067;-78
2021/03/19 03:58:39;;;;;;;5.18;2.00;;;;;;;10.30;75.95;101843.31;4436071;32;20081;-80
2021/03/19 04:01:04;;;;;;;4.25;2.08;;;;;;;10.45;75.59;101838.41;4447458;32;20107;-80
2021/03/19 04:03:31;;;;;;;3.80;2.30;;;;;;;10.48;75.30;101841.19;4433636;32;20072;-78
2021/03/19 04:05:56;;;;;;;6.45;2.20;;;;;;;10.43;75.47;101849.28;4435934;32;20079;-78
2021/03/19 04:08:25;;;;;;;5.20;1.90;;;;;;;10.35;75.99;101844.91;4435482;32;20049;-78
2021/03/19 04:10:54;;;;;;;5.35;2.50;;;;;;;10.46;75.79;101846.44;4435919;32;20084;-80
2021/03/19 04:13:21;;;;;;;6.70;2.45;;;;;;;10.25;76.49;101857.81;4425356;32;20078;-79
2021/03/19 04:15:50;;;;;;;4.57;2.45;;;;;;;10.17;76.06;101856.25;4436816;32;20088;-80
2021/03/19 04:18:17;;;;;;;4.20;1.95;;;;;;;10.23;76.11;101862.25;4436390;32;20080;-78
2021/03/19 04:20:45;;;;;;;4.50;2.25;;;;;;;10.12;76.54;101864.31;4424839;32;20064;-79
2021/03/19 04:23:12;;;;;;;3.60;2.00;;;;;;;10.27;75.86;101863.03;4427318;32;20073;-79
2021/03/19 04:25:38;;;;;;;8.18;2.22;;;;;;;10.26;75.89;101864.22;4426233;32;20103;-80
2021/03/19 04:28:08;;;;;;;2.80;1.95;;;;;;;10.32;75.57;101871.03;4425164;32;20061;-78
2021/03/19 04:30:40;;;;;;;4.68;2.12;;;;;;;10.25;75.64;101865.47;4424677;32;20104;-80
2021/03/19 04:33:07;;;;;;;8.32;3.05;;;;;;;10.26;75.66;101875.50;4424874;32;20053;-79
2021/03/19 04:35:34;;;;;;;4.50;2.90;;;;;;;10.22;75.99;101871.91;4426157;32;20102;-79
2021/03/19 04:38:05;;;;;;;8.43;3.53;;;;;;;10.13;76.48;101877.16;4412005;32;20037;-79
2021/03/19 04:40:31;;;;;;;6.95;3.25;;;;;;;10.18;76.50;101871.13;4428194;32;20104;-80
2021/03/19 04:42:59;;;;;;;7.00;3.15;;;;;;;10.11;77.22;101871.94;4426338;32;20077;-78
2021/03/19 04:45:25;;;;;;;8.63;3.50;;;;;;;10.13;77.78;101865.91;4429821;32;20489;-78
2021/03/19 04:47:53;;;;;;;7.28;4.15;;;;;;;10.09;78.70;101865.91;4423520;32;20084;-78
2021/03/19 04:50:21;;;;;;;9.27;4.50;;;;;;;10.09;78.35;101871.53;4425076;32;20057;-78
2021/03/19 04:52:47;;;;;;;9.50;3.90;;;;;;;10.00;79.14;101871.13;4423724;32;21765;-80
2021/03/19 04:55:13;;;;;;;7.93;4.37;;;;;;;9.92;79.77;101878.78;4428923;32;20051;-78
2021/03/19 04:57:38;;;;;;;7.30;4.37;;;;;;;9.86;80.09;101883.25;4410567;32;20103;-77
2021/03/19 05:00:07;;;;;;;7.28;4.05;;;;;;;9.82;80.56;101879.62;4424684;32;20034;-78
2021/03/19 05:02:40;;;;;;;6.12;4.25;;;;;;;9.78;80.84;101881.66;4426045;32;20168;-79
2021/03/19 05:05:14;;;;;;;9.80;3.92;;;;;;;9.81;80.50;101886.47;4412615;32;20056;-79
2021/03/19 05:07:40;;;;;;;6.82;4.03;;;;;;;9.87;80.73;101878.41;4426831;32;20038;-80
2021/03/19 05:10:07;;;;;;;10.25;4.60;;;;;;;9.80;80.61;101879.25;4427169;32;20042;-78
2021/03/19 05:12:33;;;;;;;7.12;3.40;;;;;;;9.82;80.59;101874.00;4426065;32;20066;-79
2021/03/19 05:14:59;;;;;;;6.30;3.80;;;;;;;9.91;80.59;101882.81;4425972;32;20060;-79
2021/03/19 05:17:24;;;;;;;6.10;3.70;;;;;;;9.93;80.47;101880.41;4429073;32;20045;-80
2021/03/19 05:19:50;;;;;;;6.60;3.90;;;;;;;9.91;80.37;101879.19;4423664;32;20104;-78
2021/03/19 05:22:16;;;;;;;7.30;3.30;;;;;;;9.84;80.75;101877.22;4425943;32;20051;-77
2021/03/19 05:24:42;;;;;;;5.35;2.78;;;;;;;10.00;80.59;101896.44;4426875;32;20061;-78
2021/03/19 05:27:09;;;;;;;5.62;2.95;;;;;;;9.96;80.40;101899.28;4425349;32;20052;-79
2021/03/19 05:29:35;;;;;;;4.43;2.85;;;;;;;9.95;80.32;101905.31;4423036;32;20070;-79
2021/03/19 05:32:00;;;;;;;7.75;3.80;;;;;;;9.96;80.45;101902.09;4426115;32;20104;-78
2021/03/19 05:34:26;;;;;;;6.10;2.90;;;;;;;10.04;80.42;101909.28;4409329;32;20068;-78
2021/03/19 05:36:52;;;;;;;6.53;3.28;;;;;;;10.06;80.07;101911.69;4428513;32;20087;-79
2021/03/19 05:39:18;;;;;;;4.62;2.90;;;;;;;10.03;79.89;101913.31;4425261;32;20113;-79
2021/03/19 05:41:44;;;;;;;5.18;2.80;;;;;;;9.95;80.31;101930.62;4425841;32;20064;-78
2021/03/19 05:46:49;;;;;;;5.20;3.28;;;;;;;10.56;79.41;101937.66;4001499;31;15016054;-79
2021/03/19 05:49:20;;;;;;;6.62;3.17;;;;;;;10.56;79.41;101937.66;4456885;32;20153;-79
2021/03/19 05:51:51;;;;;;;5.75;3.40;;;;;;;10.06;81.09;101935.03;4458384;32;20423;-78
2021/03/19 05:59:40;;;;;;;7.32;3.62;;;;;;;10.27;81.08;101947.44;3992841;32;15027159;-78
2021/03/19 06:12:55;;;;;;;4.28;3.03;;;;;;;10.04;83.06;101945.06;3999435;31;15013714;-79
2021/03/19 06:15:40;;;;;;;5.35;3.25;;;;;;;10.04;83.06;101945.06;4458467;32;20129;-78
2021/03/19 06:18:19;;;;;;;5.97;3.12;;;;;;;9.70;84.15;101946.75;4457059;32;20041;-78
2021/03/19 06:21:12;;;;;;;5.50;3.25;;;;;;;9.64;84.54;101956.78;4459833;32;20041;-78
2021/03/19 06:23:40;;;;;;;6.95;3.78;;;;;;;9.63;84.74;101955.97;4457847;32;20037;-79
2021/03/19 06:26:25;;;;;;;6.18;3.47;;;;;;;9.60;85.24;101945.53;4460654;32;20092;-79
2021/03/19 06:29:05;;;;;;;7.07;3.78;;;;;;;9.59;85.65;101957.19;4457334;32;20056;-78
2021/03/19 06:31:32;;;;;;;7.70;3.40;;;;;;;9.57;85.40;101954.78;4456913;32;20543;-78
2021/03/19 06:36:55;;;;;;;5.07;3.28;;;;;;;9.66;85.32;101959.97;3986396;32;15026419;-78
2021/03/19 06:39:43;;;;;;;6.60;3.15;;;;;;;9.66;85.91;101959.97;4440591;32;20041;-78
2021/03/19 06:45:21;;;;;;;7.37;3.62;;;;;;;10.08;84.62;101983.25;3985513;32;15029506;-78
2021/03/19 06:47:52;;;;;;;4.65;2.90;;;;;;;10.08;84.62;101983.25;4438670;32;20086;-77
2021/03/19 06:53:22;;;;;;;5.93;3.22;;;;;;;9.93;84.55;101970.41;3987261;32;15039499;-76
2021/03/19 06:55:54;;;;;;;6.07;3.00;;;;;;;9.87;84.50;101985.25;4441992;32;20032;-77
2021/03/19 06:58:39;;;;;;;6.65;3.37;;;;;;;9.81;84.33;101984.06;4440985;32;20096;-76
2021/03/19 07:01:13;;;;;;;5.50;2.95;;;;;;;9.83;84.37;101990.09;4435755;32;20021;-76
2021/03/19 07:04:08;;;;;;;5.00;2.75;;;;;;;9.87;84.55;101991.69;4422918;32;20121;-76
2021/03/19 07:22:54;;;;;;;4.25;2.78;;;;;;;10.17;85.23;102015.78;3981829;32;15026162;-76
2021/03/19 07:25:59;;;;;;;4.20;2.67;;;;;;;10.17;85.23;102015.78;4432155;32;20037;-79
2021/03/19 07:34:25;;;;;;;6.85;3.70;;;;;;;10.55;82.58;102023.31;3982894;32;15024069;-77
2021/03/19 07:37:04;;;;;;;7.60;3.67;;;;;;;10.55;82.58;102023.31;4434604;32;20037;-79
2021/03/19 07:48:01;;;;;;;7.45;3.20;;;;;;;10.81;81.73;102032.06;3983447;32;15024450;-78
2021/03/19 07:50:43;;;;;;;5.53;3.60;;;;;;;10.81;81.73;102032.06;4437417;32;20100;-76
2021/03/19 07:58:38;;;;;;;6.65;3.83;;;;;;;11.00;80.38;102030.75;3978220;32;15028970;-78
2021/03/19 08:04:25;;;;;;;7.18;3.65;;;;;;;10.49;81.99;102028.56;3968712;32;15030123;-77
2021/03/19 08:06:55;;;;;;;7.05;3.87;;;;;;;10.40;82.28;102033.81;4422365;32;20061;-78
2021/03/19 08:09:34;;;;;;;7.70;4.18;;;;;;;10.51;82.18;102047.84;4416200;32;20062;-80
2021/03/19 08:12:17;;;;;;;6.97;4.68;;;;;;;10.62;81.70;102034.56;4420763;32;20520;-78
2021/03/19 08:22:42;;;;;;;5.95;3.53;;;;;;;11.07;78.78;102062.50;3971044;32;15027019;-81
2021/03/19 08:25:21;;;;;;;7.15;4.20;;;;;;;11.07;78.78;102062.50;4421683;32;20018;-80
2021/03/19 08:28:08;;;;;;;7.53;4.80;;;;;;;10.67;79.23;102065.91;4422373;32;20506;-78
2021/03/19 08:38:43;;;;;;;6.45;4.15;;;;;;;11.06;78.37;102082.62;3969251;32;15224427;-76
2021/03/19 08:41:18;;;;;;;6.12;4.20;;;;;;;10.74;78.33;102090.44;4426734;32;20368;-77
2021/03/19 08:49:00;;;;;;;6.90;3.50;;;;;;;11.33;76.95;102089.34;3997489;31;15014192;-81
2021/03/19 08:54:24;;;;;;;5.05;3.17;;;;;;;11.20;76.51;102091.81;3982141;32;15024972;-80
2021/03/19 08:57:15;;;;;;;5.20;2.92;;;;;;;11.20;76.51;102091.81;4431519;32;20077;-80
2021/03/19 09:15:36;;;;;;;4.05;1.87;;;;;;;11.45;75.00;102117.06;3979964;32;15024376;-80
2021/03/19 09:18:24;;;;;;;2.62;1.58;;;;;;;11.45;75.00;102117.06;4435524;32;20414;-78
2021/03/19 09:32:21;;;;;;;4.20;2.15;;;;;;;11.82;73.37;102134.19;3979453;32;15024718;-78
2021/03/19 09:43:46;;;;;;;3.62;2.20;;;;;;;11.56;71.75;102134.72;3979956;32;15025430;-78
2021/03/19 09:46:29;;;;;;;4.90;2.62;;;;;;;11.39;72.80;102138.44;4435168;32;20037;-81
2021/03/19 09:57:00;;;;;;;4.45;2.12;;;;;;;11.55;74.61;102144.38;3963897;31;15712063;-78
2021/03/19 09:59:28;;;;;;;3.72;2.20;;;;;;;11.55;74.61;102144.38;4446145;32;20084;-80
2021/03/19 10:01:56;;;;;;;4.65;1.98;;;;;;;11.17;76.18;102140.53;4444699;32;20075;-81
2021/03/19 10:04:39;;;;;;;3.65;1.92;;;;;;;11.19;75.41;102140.94;4440152;32;20072;-81
2021/03/19 10:07:17;;;;;;;4.25;1.35;;;;;;;11.32;74.97;102146.94;4432337;32;20461;-83
2021/03/19 10:09:49;;;;;;;2.00;1.35;;;;;;;11.36;72.95;102137.25;4430691;32;20441;-85
2021/03/19 10:12:20;;;;;;;2.28;1.20;;;;;;;11.40;73.53;102143.66;4441750;32;20448;-81
2021/03/19 10:14:48;;;;;;;2.05;1.58;;;;;;;11.38;75.11;102140.44;4440067;32;20156;-82
2021/03/19 10:17:20;;;;;;;1.23;1.12;;;;;;;11.45;75.31;102140.41;4426919;32;20657;-83
2021/03/19 10:19:52;;;;;;;2.15;1.35;;;;;;;11.26;75.75;102149.38;4441180;32;20041;-80
2021/03/19 10:22:39;;;;;;;1.98;1.42;;;;;;;11.28;76.52;102143.31;4442842;32;20095;-84
2021/03/19 10:25:18;;;;;;;1.52;1.00;;;;;;;11.13;75.94;102142.59;4440441;32;20474;-81
2021/03/19 10:27:45;;;;;;;4.30;1.27;;;;;;;11.11;75.04;102150.62;4436168;32;20080;-81
2021/03/19 10:30:20;;;;;;;1.67;1.08;;;;;;;11.20;76.09;102153.03;4437188;32;20100;-80
2021/03/19 10:32:47;;;;;;;2.35;0.90;;;;;;;11.14;76.92;102141.34;4435576;32;20045;-81
2021/03/19 10:35:20;;;;;;;1.17;0.90;;;;;;;11.21;76.34;102146.16;4439997;32;20071;-81
2021/03/19 10:37:54;;;;;;;3.05;1.70;;;;;;;11.17;76.50;102156.66;4423911;32;20060;-80
2021/03/19 10:43:11;;;;;;;3.27;2.30;;;;;;;11.50;75.82;102161.72;3983905;31;15018482;-79
2021/03/19 10:46:02;;;;;;;2.78;2.30;;;;;;;11.50;75.82;102161.72;4420937;32;20207;-79
2021/03/19 10:56:46;;;;;;;4.07;2.55;;;;;;;12.01;74.89;102173.13;3996202;31;15015845;-81
2021/03/19 11:15:39;;;;;;;7.18;4.72;;;;;;;12.04;73.13;102187.22;3951025;32;15019774;-84
2021/03/19 11:20:53;;;;;;;11.48;3.78;;;;;;;11.65;73.53;102181.03;3978613;32;15027559;-82
2021/03/19 11:23:41;;;;;;;5.30;3.75;;;;;;;11.56;73.92;102183.44;4434077;32;20080;-78
2021/03/19 11:26:26;;;;;;;7.00;3.83;;;;;;;11.55;74.03;102183.88;4433706;32;20077;-80
2021/03/19 11:34:45;;;;;;;5.62;3.10;;;;;;;12.15;72.16;102196.75;3978418;32;15024793;-81
2021/03/19 11:43:02;;;;;;;4.55;2.40;;;;;;;12.45;69.98;102207.06;3980345;32;15054077;-80
2021/03/19 11:45:36;;;;;;;2.78;1.92;;;;;;;12.45;69.98;102207.06;4428938;32;20064;-79
2021/03/19 11:51:21;;;;;;;1.60;1.05;;;;;;;12.27;69.74;102205.59;3979342;32;15023465;-82
2021/03/19 11:53:47;;;;;;;1.42;0.98;;;;;;;12.18;69.86;102208.09;4431523;32;20060;-81
2021/03/19 11:56:13;;;;;;;3.78;0.98;;;;;;;12.15;69.33;102209.72;4435523;32;20498;-80
2021/03/19 11:58:40;;;;;;;2.25;1.20;;;;;;;12.13;68.91;102211.34;4432506;32;20073;-81
2021/03/19 12:01:08;;;;;;;1.70;0.98;;;;;;;11.94;70.06;102216.28;4431168;32;20073;-82
2021/03/19 12:03:39;;;;;;;1.85;0.95;;;;;;;12.04;70.11;102217.47;4430761;32;20076;-80
2021/03/19 12:06:06;;;;;;;2.10;1.08;;;;;;;11.96;70.20;102216.69;4430063;32;20478;-81
2021/03/19 12:08:33;;;;;;;7.10;1.60;;;;;;;11.94;70.71;102219.13;4432562;32;20184;-79
2021/03/19 12:11:01;;;;;;;3.85;1.45;;;;;;;11.88;70.75;102220.75;4429135;32;20034;-81
2021/03/19 12:13:27;;;;;;;2.28;1.33;;;;;;;11.82;71.32;102211.12;4427508;32;20428;-81
2021/03/19 12:15:53;;;;;;;4.25;1.67;;;;;;;11.99;70.74;102220.69;4428601;32;20069;-84
2021/03/19 12:18:21;;;;;;;1.33;1.00;;;;;;;12.14;70.00;102210.94;4430006;32;20100;-86
2021/03/19 12:20:48;;;;;;;2.28;1.42;;;;;;;12.01;69.67;102209.81;4429123;32;20348;-81
2021/03/19 12:23:14;;;;;;;2.78;1.50;;;;;;;11.97;68.77;102209.84;4428641;32;20130;-79
2021/03/19 12:25:41;;;;;;;5.35;1.85;;;;;;;11.87;68.79;102219.16;4427897;32;20469;-80
2021/03/19 12:28:10;;;;;;;3.05;1.77;;;;;;;11.98;69.66;102210.66;4429646;32;20050;-80
2021/03/19 12:30:37;;;;;;;3.80;1.60;;;;;;;12.00;69.88;102213.88;4423393;32;20049;-82
2021/03/19 12:33:03;;;;;;;1.92;1.30;;;;;;;12.01;69.81;102210.63;4425292;32;20230;-79
2021/03/19 12:35:29;;;;;;;3.90;1.50;;;;;;;12.00;69.09;102203.37;4431821;32;20037;-83
2021/03/19 12:37:57;;;;;;;3.53;1.60;;;;;;;12.06;69.18;102203.75;4427943;32;20626;-81
2021/03/19 12:40:25;;;;;;;3.70;1.55;;;;;;;12.13;68.78;102204.47;4427663;32;20454;-81
2021/03/19 12:42:51;;;;;;;1.58;1.10;;;;;;;12.14;68.23;102205.28;4426975;32;20029;-80
2021/03/19 12:45:20;;;;;;;2.50;1.50;;;;;;;12.08;68.63;102209.75;4426879;32;20103;-82
2021/03/19 12:47:45;;;;;;;2.12;1.50;;;;;;;12.17;68.61;102201.62;4425910;32;20102;-81
2021/03/19 12:50:12;;;;;;;3.62;1.73;;;;;;;12.23;67.61;102204.81;4425504;32;20074;-84
2021/03/19 12:52:37;;;;;;;2.87;2.10;;;;;;;12.22;67.77;102197.56;4430804;32;20072;-81
2021/03/19 12:55:05;;;;;;;4.87;2.30;;;;;;;12.15;67.75;102198.41;4430992;32;20050;-82
2021/03/19 12:57:31;;;;;;;3.20;2.20;;;;;;;12.16;68.20;102208.50;4427618;32;20038;-82
2021/03/19 12:59:57;;;;;;;2.90;2.22;;;;;;;12.08;68.00;102201.28;4428057;32;20115;-82
2021/03/19 13:02:24;;;;;;;4.28;2.20;;;;;;;12.30;68.13;102202.75;4416618;32;20081;-79
2021/03/19 13:04:50;;;;;;;6.35;2.40;;;;;;;12.39;67.56;102199.47;4419814;32;20081;-81
2021/03/19 13:07:15;;;;;;;7.72;2.40;;;;;;;12.45;67.11;102198.59;4419792;32;20065;-81
2021/03/19 13:09:41;;;;;;;3.72;2.40;;;;;;;12.45;67.79;102192.94;4418720;32;20038;-83
2021/03/19 13:12:09;;;;;;;6.15;2.72;;;;;;;12.42;68.16;102193.00;4418164;32;20062;-84
2021/03/19 13:14:34;;;;;;;5.95;2.58;;;;;;;12.48;66.79;102196.94;4415554;32;20091;-82
2021/03/19 13:17:01;;;;;;;3.15;2.08;;;;;;;12.49;67.17;102190.88;4419590;32;20034;-83
2021/03/19 13:19:28;;;;;;;3.08;2.15;;;;;;;12.57;67.40;102195.25;4417024;32;20100;-84
2021/03/19 13:21:54;;;;;;;4.65;2.22;;;;;;;12.62;66.91;102192.00;4416083;32;20114;-82
2021/03/19 13:24:21;;;;;;;5.22;2.62;;;;;;;12.72;66.37;102193.91;4421196;32;20064;-85
2021/03/19 13:26:47;;;;;;;5.12;2.60;;;;;;;12.69;66.30;102196.75;4418457;32;20449;-82
2021/03/19 13:29:14;;;;;;;3.45;2.00;;;;;;;12.65;66.53;102196.81;4418302;32;20034;-78
2021/03/19 13:31:40;;;;;;;6.05;2.67;;;;;;;12.65;65.98;102193.97;4414977;32;20084;-79
2021/03/19 13:34:07;;;;;;;6.00;3.05;;;;;;;12.49;67.34;102196.53;4418391;32;21040;-82
2021/03/19 13:36:34;;;;;;;4.45;3.22;;;;;;;12.55;66.96;102194.84;4416031;32;20081;-80
2021/03/19 13:39:00;;;;;;;6.22;2.92;;;;;;;12.57;66.75;102202.91;4413763;32;20115;-81
2021/03/19 13:41:26;;;;;;;8.32;2.78;;;;;;;12.46;66.31;102202.22;4416254;32;21524;-82
2021/03/19 13:43:51;;;;;;;3.95;2.90;;;;;;;12.45;67.37;102194.97;4417233;32;20708;-81
2021/03/19 13:46:18;;;;;;;4.07;2.62;;;;;;;12.44;66.73;102191.34;4412998;32;20636;-82
2021/03/19 13:48:44;;;;;;;4.00;2.90;;;;;;;12.35;67.05;102202.31;4418199;32;20038;-82
2021/03/19 13:51:13;;;;;;;6.55;2.92;;;;;;;12.41;66.18;102192.19;4414549;32;20029;-83
2021/03/19 13:53:41;;;;;;;5.70;2.90;;;;;;;12.52;66.24;102194.91;4416282;32;20123;-82
2021/03/19 13:56:07;;;;;;;4.28;3.03;;;;;;;12.46;66.32;102205.84;4416510;32;20026;-82
2021/03/19 13:58:33;;;;;;;9.07;3.25;;;;;;;12.39;67.07;102199.47;4416269;32;20042;-82
2021/03/19 14:01:04;;;;;;;5.93;3.00;;;;;;;12.31;67.95;102203.56;4419294;32;20073;-82
2021/03/19 14:03:30;;;;;;;5.28;3.22;;;;;;;12.38;67.60;102195.03;4419961;32;20095;-82
2021/03/19 14:05:56;;;;;;;5.90;2.80;;;;;;;12.44;67.88;102202.63;4418702;32;20433;-79
2021/03/19 14:08:27;;;;;;;5.10;2.45;;;;;;;12.47;67.22;102196.16;4414882;32;20149;-78
2021/03/19 14:10:56;;;;;;;4.55;3.15;;;;;;;12.64;66.99;102191.56;4414114;32;20546;-79
2021/03/19 14:13:24;;;;;;;5.87;3.22;;;;;;;12.56;67.44;102188.00;4414595;32;20156;-82
2021/03/19 14:15:50;;;;;;;8.75;4.78;;;;;;;12.42;67.88;102182.47;4415154;32;20126;-79
2021/03/19 14:18:17;;;;;;;6.30;3.20;;;;;;;12.41;67.52;102175.25;4412223;32;20500;-83
2021/03/19 14:20:45;;;;;;;3.60;2.90;;;;;;;12.44;67.21;102191.34;4415564;32;20089;-79
2021/03/19 14:23:11;;;;;;;4.22;2.67;;;;;;;12.42;66.24;102187.34;4415574;32;20122;-79
2021/03/19 14:25:37;;;;;;;6.25;2.90;;;;;;;12.29;66.26;102189.84;4415631;32;20101;-83
2021/03/19 14:28:06;;;;;;;4.50;3.10;;;;;;;12.24;66.80;102190.28;4416178;32;20060;-84
2021/03/19 14:30:36;;;;;;;5.35;3.25;;;;;;;12.30;66.77;102191.44;4414072;32;20069;-80
2021/03/19 14:33:02;;;;;;;4.20;3.80;;;;;;;12.24;66.69;102192.31;4412631;32;20042;-82
2021/03/19 14:35:29;;;;;;;6.10;4.10;;;;;;;12.16;66.82;102194.41;4412391;32;20069;-80
2021/03/19 14:37:54;;;;;;;6.62;3.53;;;;;;;12.20;66.84;102192.34;4417033;32;20275;-78
2021/03/19 14:40:25;;;;;;;6.45;3.70;;;;;;;12.08;66.65;102193.66;4417122;32;20418;-82
2021/03/19 14:42:51;;;;;;;5.72;2.95;;;;;;;12.12;67.29;102190.00;4411922;32;20158;-84
2021/03/19 14:45:16;;;;;;;5.40;3.03;;;;;;;12.08;67.85;102195.66;4412664;32;20073;-81
2021/03/19 14:47:42;;;;;;;6.07;3.58;;;;;;;12.22;67.28;102191.94;4416325;32;20482;-83
2021/03/19 14:50:10;;;;;;;6.93;2.90;;;;;;;12.27;67.70;102185.84;4414327;32;20263;-81
2021/03/19 14:52:36;;;;;;;4.07;2.80;;;;;;;12.33;67.58;102189.84;4414515;32;20073;-80
2021/03/19 14:55:05;;;;;;;4.82;3.25;;;;;;;12.30;67.48;102191.44;4417161;32;20063;-80
2021/03/19 14:57:31;;;;;;;5.93;3.22;;;;;;;12.42;67.71;102199.41;4417623;32;21399;-83